Time;durP1;ratioP1;P1;durP2;ratioP2;P2;SDS_P1;SDS_P2;PMS_P1;PMS_P2;Temp;Humidity;BMP_temperature;BMP_pressure;BME280_temperature;BME280_humidity;BME280_pressure;Samples;Min_cycle;Max_cycle;Signal;HPM_P1;HPM_P2
2022/07/29 00:00:12;;;;;;;4.03;2.20;;;18.90;1.00;;;;;;5115434;28;20179;-72
2022/07/29 00:02:38;;;;;;;2.10;2.00;;;19.00;1.00;;;;;;5114456;28;20245;-74
2022/07/29 00:05:04;;;;;;;5.33;2.13;;;19.00;1.00;;;;;;5097182;28;20229;-73
2022/07/29 00:07:30;;;;;;;3.03;1.90;;;19.00;99.90;;;;;;5115113;28;20160;-72
2022/07/29 00:09:56;;;;;;;5.80;1.90;;;18.90;1.00;;;;;;5115070;28;20612;-72
2022/07/29 00:12:23;;;;;;;5.97;2.20;;;18.80;77.40;;;;;;5115246;28;20625;-73
2022/07/29 00:14:49;;;;;;;3.67;2.10;;;18.70;99.90;;;;;;5115093;28;20203;-73
2022/07/29 00:17:15;;;;;;;4.07;1.90;;;18.70;99.90;;;;;;5114621;28;20186;-72
2022/07/29 00:19:42;;;;;;;3.23;1.80;;;18.70;99.90;;;;;;5096993;28;20223;-72
2022/07/29 00:22:07;;;;;;;3.60;1.80;;;18.70;99.90;;;;;;5115101;28;20210;-72
2022/07/29 00:24:33;;;;;;;2.10;1.93;;;18.70;99.90;;;;;;5114886;28;20175;-72
2022/07/29 00:26:58;;;;;;;4.80;2.03;;;18.70;99.90;;;;;;5114815;28;20186;-73
2022/07/29 00:29:24;;;;;;;4.03;2.07;;;18.70;99.90;;;;;;5114720;28;20175;-73
2022/07/29 00:31:50;;;;;;;4.63;2.20;;;18.70;99.90;;;;;;5114493;28;20250;-73
2022/07/29 00:37:00;;;;;;;4.07;2.03;;;18.60;1.00;;;;;;5114737;28;20224;-73
2022/07/29 00:39:25;;;;;;;6.80;2.60;;;18.70;1.00;;;;;;5096480;28;20175;-73
2022/07/29 00:41:51;;;;;;;6.70;2.30;;;18.60;1.00;;;;;;5114645;28;20629;-73
2022/07/29 00:44:17;;;;;;;8.37;3.87;;;18.60;1.00;;;;;;5114541;28;20606;-73
2022/07/29 00:46:42;;;;;;;4.63;2.43;;;18.60;1.00;;;;;;5114095;28;20213;-73
2022/07/29 00:49:08;;;;;;;12.43;3.63;;;18.60;99.90;;;;;;5114554;28;20217;-73
2022/07/29 00:51:37;;;;;;;5.93;2.13;;;18.60;99.90;;;;;;5114747;28;20179;-71
2022/07/29 00:54:04;;;;;;;3.27;2.57;;;18.50;99.90;;;;;;5096043;28;20199;-73
2022/07/29 00:56:33;;;;;;;5.13;3.50;;;18.50;1.00;;;;;;5114270;28;20262;-73
2022/07/29 00:58:59;;;;;;;4.17;2.13;;;18.50;1.00;;;;;;5114146;28;20220;-72
2022/07/29 01:01:26;;;;;;;8.57;2.50;;;18.40;1.00;;;;;;5113924;28;20179;-72
2022/07/29 01:03:52;;;;;;;2.50;2.03;;;18.40;1.00;;;;;;5114336;28;20171;-72
2022/07/29 01:06:18;;;;;;;5.93;2.03;;;18.30;1.00;;;;;;5114070;28;20497;-72
2022/07/29 01:08:46;;;;;;;7.10;2.07;;;18.20;1.00;;;;;;5082705;28;20220;-72
2022/07/29 01:11:13;;;;;;;3.93;2.20;;;18.20;1.00;;;;;;5073499;28;20199;-72
2022/07/29 01:13:40;;;;;;;6.70;1.90;;;18.10;38.30;;;;;;5072932;28;20185;-72
2022/07/29 01:16:17;;;;;;;3.10;2.07;;;18.10;81.90;;;;;;5072527;28;20203;-72
2022/07/29 01:18:47;;;;;;;4.97;2.03;;;18.10;99.90;;;;;;5073413;28;20178;-72
2022/07/29 01:21:37;;;;;;;5.47;2.23;;;18.00;99.90;;;;;;5073301;28;20257;-72
2022/07/29 01:24:09;;;;;;;4.23;2.03;;;18.00;99.90;;;;;;5073276;28;20160;-72
2022/07/29 01:26:37;;;;;;;3.10;2.13;;;18.00;99.90;;;;;;5073246;28;20179;-72
2022/07/29 01:29:09;;;;;;;7.13;2.20;;;18.00;99.90;;;;;;5073363;28;20165;-73
2022/07/29 01:31:44;;;;;;;5.90;2.17;;;18.00;99.90;;;;;;5073008;28;20183;-73
2022/07/29 01:34:13;;;;;;;2.83;1.90;;;18.00;99.90;;;;;;5073347;28;20252;-72
2022/07/29 01:36:55;;;;;;;2.67;2.17;;;18.00;99.90;;;;;;5072941;28;20246;-73
2022/07/29 01:39:30;;;;;;;4.00;2.00;;;18.10;99.90;;;;;;5073193;28;20164;-73
2022/07/29 01:42:04;;;;;;;2.90;1.90;;;18.10;99.90;;;;;;5073218;28;20160;-73
2022/07/29 01:44:59;;;;;;;4.77;2.20;;;18.10;99.90;;;;;;5071561;28;20636;-73
2022/07/29 01:47:31;;;;;;;7.87;2.00;;;18.10;99.90;;;;;;5073167;28;20177;-73
2022/07/29 01:49:59;;;;;;;6.40;2.20;;;18.10;99.90;;;;;;5073229;28;20161;-73
2022/07/29 01:52:36;;;;;;;3.67;2.07;;;18.10;99.90;;;;;;5072967;28;20226;-73
2022/07/29 01:55:13;;;;;;;7.73;2.40;;;18.10;99.90;;;;;;5071561;28;20204;-73
2022/07/29 01:57:40;;;;;;;3.37;1.80;;;18.10;99.90;;;;;;5072984;28;20321;-73
2022/07/29 02:00:06;;;;;;;3.47;2.17;;;18.00;99.90;;;;;;5072648;28;20218;-73
2022/07/29 02:02:35;;;;;;;2.63;1.97;;;18.00;99.90;;;;;;5073055;28;20176;-73
2022/07/29 02:05:02;;;;;;;6.03;2.17;;;17.90;99.90;;;;;;5072899;28;20188;-73
2022/07/29 02:07:31;;;;;;;2.77;1.90;;;17.90;99.90;;;;;;5072788;28;20173;-73
2022/07/29 02:09:58;;;;;;;3.90;2.13;;;17.80;99.90;;;;;;5111984;28;20226;-72
2022/07/29 02:12:25;;;;;;;4.23;1.70;;;17.80;99.90;;;;;;5095246;28;20210;-72
2022/07/29 02:14:54;;;;;;;5.10;1.93;;;17.80;99.90;;;;;;5113113;28;20323;-72
2022/07/29 02:17:27;;;;;;;2.50;1.97;;;17.80;99.90;;;;;;5113416;28;20187;-72
2022/07/29 02:19:58;;;;;;;3.77;1.97;;;17.70;99.90;;;;;;5113399;28;20182;-73
2022/07/29 02:22:26;;;;;;;2.07;1.90;;;17.60;1.00;;;;;;5113293;28;20622;-72
2022/07/29 02:24:53;;;;;;;10.53;2.60;;;17.50;1.00;;;;;;5113236;28;20175;-73
2022/07/29 02:27:20;;;;;;;7.30;2.30;;;17.40;1.00;;;;;;5098483;28;20928;-73
2022/07/29 02:29:47;;;;;;;7.57;2.67;;;17.30;1.00;;;;;;5117337;28;20175;-73
2022/07/29 02:32:14;;;;;;;7.40;2.50;;;17.30;1.00;;;;;;5098844;28;20179;-73
2022/07/29 02:34:41;;;;;;;5.80;2.40;;;17.30;1.00;;;;;;5116752;28;20272;-73
2022/07/29 02:37:10;;;;;;;3.50;2.20;;;17.30;1.00;;;;;;5116963;28;20645;-73
2022/07/29 02:39:37;;;;;;;4.67;2.50;;;17.30;1.00;;;;;;5117091;28;20212;-73
2022/07/29 02:42:07;;;;;;;4.87;2.07;;;17.20;1.00;;;;;;5116685;28;20364;-73
2022/07/29 02:44:34;;;;;;;4.57;2.30;;;17.20;1.00;;;;;;5098628;28;20718;-73
2022/07/29 02:47:15;;;;;;;3.77;2.33;;;17.20;1.00;;;;;;5116862;28;20164;-73
2022/07/29 02:49:46;;;;;;;8.37;2.53;;;17.20;1.00;;;;;;5116720;28;20604;-73
2022/07/29 02:52:42;;;;;;;3.20;2.30;;;17.20;1.00;;;;;;5116882;28;20192;-73
2022/07/29 02:55:16;;;;;;;2.80;2.33;;;17.20;1.00;;;;;;5098473;28;20273;-73
2022/07/29 02:57:49;;;;;;;4.53;2.40;;;17.10;1.00;;;;;;5116097;28;20163;-73
2022/07/29 03:00:16;;;;;;;6.50;2.27;;;17.20;1.00;;;;;;5098496;28;20649;-73
2022/07/29 03:02:50;;;;;;;6.87;2.47;;;17.20;1.00;;;;;;5116509;28;20159;-73
2022/07/29 03:05:20;;;;;;;6.03;2.73;;;17.10;1.00;;;;;;5116485;28;20171;-73
2022/07/29 03:07:56;;;;;;;5.30;2.30;;;17.10;1.00;;;;;;5116093;28;20163;-73
2022/07/29 03:10:24;;;;;;;2.73;2.27;;;17.10;1.00;;;;;;5116394;28;20187;-73
2022/07/29 03:12:50;;;;;;;3.30;2.23;;;17.10;1.00;;;;;;5115820;28;20693;-73
2022/07/29 03:15:16;;;;;;;4.13;2.50;;;17.00;1.00;;;;;;5116148;28;20407;-73
2022/07/29 03:17:43;;;;;;;6.90;2.60;;;17.00;1.00;;;;;;5116178;28;20236;-73
2022/07/29 03:20:10;;;;;;;6.07;2.47;;;17.00;1.00;;;;;;5116226;28;20182;-73
2022/07/29 03:22:43;;;;;;;6.63;2.70;;;16.90;1.00;;;;;;5115789;28;20163;-73
2022/07/29 03:25:12;;;;;;;5.57;2.63;;;16.80;1.00;;;;;;5116204;28;20171;-73
2022/07/29 03:27:38;;;;;;;3.77;2.40;;;16.70;1.00;;;;;;5115862;28;20167;-73
2022/07/29 03:30:05;;;;;;;3.40;2.40;;;16.80;1.00;;;;;;5115745;28;20179;-73
2022/07/29 03:32:31;;;;;;;2.90;2.40;;;16.80;1.00;;;;;;5115629;28;20251;-73
2022/07/29 03:34:57;;;;;;;4.97;2.80;;;16.90;1.00;;;;;;5115807;28;20681;-73
2022/07/29 03:37:22;;;;;;;7.67;2.90;;;16.90;1.00;;;;;;5114746;28;20622;-73
2022/07/29 03:39:51;;;;;;;6.80;2.90;;;16.80;1.00;;;;;;5115800;28;20665;-73
2022/07/29 03:42:20;;;;;;;5.17;2.77;;;16.70;1.00;;;;;;5115303;28;20175;-73
2022/07/29 03:44:48;;;;;;;6.30;2.77;;;16.70;1.00;;;;;;5097270;28;20193;-73
2022/07/29 03:47:17;;;;;;;5.33;3.07;;;16.60;1.00;;;;;;5115713;28;20242;-73
2022/07/29 03:49:44;;;;;;;5.87;2.80;;;16.50;1.00;;;;;;5115384;28;20223;-73
2022/07/29 03:52:10;;;;;;;4.80;2.77;;;16.40;1.00;;;;;;5115470;28;20283;-73
2022/07/29 03:54:36;;;;;;;5.03;2.70;;;16.50;1.00;;;;;;5114692;28;20395;-73
2022/07/29 03:57:03;;;;;;;4.37;2.70;;;16.40;1.00;;;;;;5114925;28;20293;-73
2022/07/29 03:59:32;;;;;;;5.10;3.13;;;16.40;1.00;;;;;;5096761;28;20226;-73
2022/07/29 04:01:58;;;;;;;4.27;3.27;;;16.30;1.00;;;;;;5115366;28;20306;-73
2022/07/29 04:04:25;;;;;;;3.87;2.90;;;16.30;1.00;;;;;;5115061;28;20165;-73
2022/07/29 04:06:50;;;;;;;5.67;3.40;;;16.30;1.00;;;;;;5114653;28;20185;-73
2022/07/29 04:09:16;;;;;;;6.03;3.30;;;16.30;1.00;;;;;;5114518;28;20760;-74
2022/07/29 04:11:42;;;;;;;7.93;3.47;;;16.30;1.00;;;;;;5114659;28;20175;-74
2022/07/29 04:14:08;;;;;;;6.83;3.47;;;16.40;1.00;;;;;;5115205;28;20203;-73
2022/07/29 04:16:33;;;;;;;6.53;3.13;;;16.40;1.00;;;;;;5114868;28;20162;-73
2022/07/29 04:18:59;;;;;;;7.23;3.93;;;16.40;1.00;;;;;;5114584;28;20176;-73
2022/07/29 04:21:25;;;;;;;4.03;2.97;;;16.40;1.00;;;;;;5114746;28;20171;-73
2022/07/29 04:23:50;;;;;;;6.13;3.23;;;16.40;1.00;;;;;;5114324;28;20185;-73
2022/07/29 04:26:17;;;;;;;6.00;3.40;;;16.50;1.00;;;;;;5096020;28;20174;-73
2022/07/29 04:28:43;;;;;;;7.23;3.80;;;16.50;1.00;;;;;;5114836;28;20689;-73
2022/07/29 04:31:09;;;;;;;4.60;3.50;;;16.50;1.00;;;;;;5114917;28;20254;-73
2022/07/29 04:33:35;;;;;;;6.77;3.40;;;16.50;1.00;;;;;;5113937;28;20240;-72
2022/07/29 04:36:01;;;;;;;4.43;3.20;;;16.50;1.00;;;;;;5114244;28;20690;-73
2022/07/29 04:38:26;;;;;;;5.77;3.33;;;16.70;1.00;;;;;;5095693;28;20171;-73
2022/07/29 04:40:52;;;;;;;10.20;3.60;;;16.90;1.00;;;;;;5113806;28;20171;-72
2022/07/29 04:43:18;;;;;;;7.17;3.77;;;17.00;1.00;;;;;;5114412;28;20255;-71
2022/07/29 04:45:43;;;;;;;5.93;3.53;;;17.30;1.00;;;;;;5095793;28;20548;-72
2022/07/29 04:48:09;;;;;;;5.47;3.33;;;17.70;1.00;;;;;;5113892;28;20163;-71
2022/07/29 04:50:37;;;;;;;6.00;3.47;;;18.30;1.00;;;;;;5095751;28;20175;-72
2022/07/29 04:53:03;;;;;;;4.23;3.43;;;18.70;99.90;;;;;;5113263;28;20204;-72
2022/07/29 04:55:28;;;;;;;9.30;3.70;;;19.20;1.00;;;;;;5113924;28;20283;-72
2022/07/29 04:57:54;;;;;;;7.47;3.33;;;19.80;99.90;;;;;;5114126;28;20664;-72
2022/07/29 05:00:20;;;;;;;7.53;2.97;;;20.30;1.00;;;;;;5113680;28;20182;-74
2022/07/29 05:02:45;;;;;;;7.20;3.45;;;20.80;99.90;;;;;;5113687;28;20171;-74
2022/07/29 05:05:11;;;;;;;15.43;3.20;;;21.40;1.00;;;;;;5113705;28;20169;-73
2022/07/29 05:07:37;;;;;;;5.40;2.92;;;22.20;99.90;;;;;;5113337;28;20171;-73
2022/07/29 05:10:03;;;;;;;6.60;3.47;;;22.40;99.90;;;;;;5113442;28;20224;-74
2022/07/29 05:12:28;;;;;;;8.98;3.17;;;22.90;99.90;;;;;;5113381;28;20170;-74
2022/07/29 05:14:54;;;;;;;5.70;2.90;;;23.40;1.00;;;;;;5113324;28;20207;-74
2022/07/29 05:17:20;;;;;;;8.32;2.85;;;23.60;1.00;;;;;;5113514;28;20198;-75
2022/07/29 05:19:46;;;;;;;5.75;3.38;;;23.70;1.00;;;;;;5113356;28;20684;-75
2022/07/29 05:22:11;;;;;;;4.78;2.85;;;24.00;1.00;;;;;;5112906;28;20283;-74
2022/07/29 05:24:37;;;;;;;5.15;3.03;;;24.70;1.00;;;;;;5113395;28;20171;-75
2022/07/29 05:27:02;;;;;;;7.45;3.13;;;25.30;99.90;;;;;;5113401;28;20626;-75
2022/07/29 05:29:28;;;;;;;5.85;3.55;;;25.10;99.90;;;;;;5113585;28;20258;-75
2022/07/29 05:31:54;;;;;;;4.70;3.15;;;24.50;99.90;;;;;;5113195;28;20164;-75
2022/07/29 05:34:19;;;;;;;6.28;3.10;;;24.10;99.90;;;;;;5112978;28;20199;-75
2022/07/29 05:36:45;;;;;;;4.57;3.08;;;23.80;1.00;;;;;;5112527;28;20191;-74
2022/07/29 05:39:12;;;;;;;7.45;3.83;;;23.60;1.00;;;;;;5113196;28;20167;-74
2022/07/29 05:41:38;;;;;;;3.85;3.17;;;23.20;1.00;;;;;;5113213;28;20198;-74
2022/07/29 05:44:04;;;;;;;5.28;3.38;;;22.40;1.00;;;;;;5112893;28;20195;-74
2022/07/29 05:46:29;;;;;;;7.03;3.47;;;21.40;99.90;;;;;;5112481;28;20179;-73
2022/07/29 05:48:56;;;;;;;4.65;3.22;;;20.60;1.00;;;;;;5113232;28;20642;-74
2022/07/29 05:51:21;;;;;;;8.93;3.70;;;20.10;7.60;;;;;;5112667;28;20163;-73
2022/07/29 05:53:47;;;;;;;9.65;3.58;;;19.60;1.00;;;;;;5112850;28;20527;-74
2022/07/29 05:56:12;;;;;;;9.35;3.92;;;19.50;56.30;;;;;;5112903;28;20191;-73
2022/07/29 05:58:38;;;;;;;12.55;3.60;;;19.40;99.90;;;;;;5094425;28;20212;-73
2022/07/29 06:01:03;;;;;;;6.47;3.55;;;19.50;1.00;;;;;;5114569;28;20181;-74
2022/07/29 06:03:30;;;;;;;7.17;3.93;;;19.40;1.00;;;;;;5116573;28;20499;-74
2022/07/29 06:05:55;;;;;;;8.73;3.63;;;19.20;1.00;;;;;;5116370;28;20181;-73
2022/07/29 06:08:21;;;;;;;5.35;3.63;;;19.50;99.90;;;;;;5116334;28;20297;-73
2022/07/29 06:10:46;;;;;;;8.57;3.92;;;19.70;99.90;;;;;;5116251;28;20653;-74
2022/07/29 06:13:12;;;;;;;7.95;3.78;;;20.20;1.00;;;;;;5116532;28;20254;-74
2022/07/29 06:15:38;;;;;;;9.23;3.83;;;21.30;1.00;;;;;;5116601;28;20207;-76
2022/07/29 06:18:07;;;;;;;4.80;3.50;;;22.30;1.00;;;;;;5116175;28;20174;-75
2022/07/29 06:20:33;;;;;;;6.88;3.45;;;23.60;1.00;;;;;;5116329;28;20163;-79
2022/07/29 06:22:59;;;;;;;4.18;3.30;;;24.40;1.00;;;;;;5116991;28;20174;-77
2022/07/29 06:25:25;;;;;;;6.53;3.70;;;25.40;99.90;;;;;;5098153;28;20175;-79
2022/07/29 06:27:52;;;;;;;6.72;3.30;;;26.10;99.90;;;;;;5116507;28;20167;-79
2022/07/29 06:30:17;;;;;;;3.38;2.88;;;27.10;99.90;;;;;;5098495;28;20520;-82
2022/07/29 06:32:43;;;;;;;3.28;2.90;;;26.60;99.90;;;;;;5117093;28;20175;-77
2022/07/29 06:35:09;;;;;;;5.45;3.17;;;26.40;99.90;;;;;;5116137;28;20206;-78
2022/07/29 06:37:34;;;;;;;3.67;2.97;;;26.90;99.90;;;;;;5116529;28;20171;-78
2022/07/29 06:42:44;;;;;;;5.88;3.30;;;27.10;99.90;;;;;;5101645;28;20191;-78
2022/07/29 06:45:13;;;;;;;7.28;3.35;;;28.20;99.90;;;;;;5115544;28;20172;-81
2022/07/29 06:47:38;;;;;;;4.15;3.28;;;29.10;99.90;;;;;;5116772;28;20170;-81
2022/07/29 06:50:04;;;;;;;6.32;3.40;;;30.20;99.90;;;;;;5115889;28;20251;-79
2022/07/29 06:52:30;;;;;;;6.65;3.47;;;31.70;96.50;;;;;;5115978;28;20190;-78
2022/07/29 06:54:56;;;;;;;7.32;3.35;;;33.60;55.00;;;;;;5115384;28;20646;-78
2022/07/29 06:57:21;;;;;;;6.22;4.05;;;34.70;22.90;;;;;;5110547;28;20661;-77
2022/07/29 06:59:47;;;;;;;6.05;3.30;;;35.60;3.30;;;;;;5115886;28;20171;-78
2022/07/29 07:02:13;;;;;;;4.25;2.90;;;36.30;1.00;;;;;;5115799;28;20190;-79
2022/07/29 07:04:39;;;;;;;5.47;3.05;;;35.10;1.00;;;;;;5114240;28;20171;-79
2022/07/29 07:07:05;;;;;;;9.63;3.92;;;34.10;1.00;;;;;;5115552;28;20220;-80
2022/07/29 07:09:30;;;;;;;4.07;3.42;;;32.80;1.00;;;;;;5113192;28;20542;-79
2022/07/29 07:11:56;;;;;;;5.53;3.80;;;30.80;1.10;;;;;;5114417;28;20262;-79
2022/07/29 07:14:22;;;;;;;8.55;3.90;;;30.30;9.00;;;;;;5115070;28;20187;-80
2022/07/29 07:16:47;;;;;;;10.32;4.47;;;29.00;17.20;;;;;;5115191;28;20175;-79
2022/07/29 07:19:13;;;;;;;5.50;4.00;;;28.70;25.30;;;;;;5114434;28;20167;-77
2022/07/29 07:21:38;;;;;;;8.50;4.70;;;27.00;56.10;;;;;;5115593;28;20178;-79
2022/07/29 07:24:04;;;;;;;6.25;4.75;;;26.00;99.90;;;;;;5115961;28;20175;-79
2022/07/29 07:26:30;;;;;;;8.70;3.60;;;26.30;99.90;;;;;;5115561;28;20195;-83
2022/07/29 07:28:56;;;;;;;4.13;3.60;;;26.90;99.90;;;;;;5097322;28;20182;-83
2022/07/29 07:31:22;;;;;;;14.50;4.82;;;28.00;99.90;;;;;;5114805;28;20182;-78
2022/07/29 07:33:47;;;;;;;5.15;3.60;;;29.40;79.00;;;;;;5114219;28;20618;-78
2022/07/29 07:36:13;;;;;;;7.13;4.22;;;31.20;41.80;;;;;;5096282;28;20206;-77
2022/07/29 07:38:39;;;;;;;6.40;3.65;;;32.50;24.20;;;;;;5113752;28;20238;-76
2022/07/29 07:41:05;;;;;;;7.75;3.55;;;33.80;8.60;;;;;;5114522;28;20179;-77
2022/07/29 07:43:30;;;;;;;3.83;3.30;;;35.10;1.00;;;;;;5113847;28;20517;-76
2022/07/29 07:45:57;;;;;;;3.75;2.80;;;35.10;1.00;;;;;;5114590;28;20167;-77
2022/07/29 07:48:23;;;;;;;5.28;3.08;;;34.60;1.00;;;;;;5096097;28;20269;-76
2022/07/29 07:50:49;;;;;;;3.30;3.00;;;35.50;1.00;;;;;;5113555;28;20199;-75
2022/07/29 07:53:15;;;;;;;5.60;2.95;;;35.80;1.00;;;;;;5114137;28;20171;-76
2022/07/29 07:55:42;;;;;;;6.50;2.45;;;35.70;1.00;;;;;;5113966;28;20234;-75
2022/07/29 07:58:08;;;;;;;4.60;2.85;;;36.10;1.00;;;;;;5114052;28;20210;-74
2022/07/29 08:00:34;;;;;;;7.25;2.60;;;36.90;1.00;;;;;;5114145;28;20212;-74
2022/07/29 08:03:00;;;;;;;4.03;2.97;;;36.60;1.00;;;;;;5113573;28;20175;-75
2022/07/29 08:05:25;;;;;;;3.50;2.35;;;36.70;1.00;;;;;;5113801;28;20175;-74
2022/07/29 08:07:51;;;;;;;2.85;2.30;;;36.80;1.00;;;;;;5113977;28;20625;-75
2022/07/29 08:10:51;;;;;;;2.83;2.63;;;37.50;1.00;;;;;;5074134;28;20220;-75
2022/07/29 08:13:08;;;;;;;4.88;2.80;;;36.70;1.00;;;;;;5073327;28;20176;-75
2022/07/29 08:15:35;;;;;;;3.95;3.08;;;36.90;1.00;;;;;;5072014;28;20248;-75
2022/07/29 08:18:00;;;;;;;4.18;2.80;;;37.20;1.00;;;;;;5073530;28;20215;-75
2022/07/29 08:20:26;;;;;;;5.72;2.70;;;35.90;1.00;;;;;;5073624;28;20200;-74
2022/07/29 08:22:53;;;;;;;6.03;2.70;;;36.40;1.00;;;;;;5072856;28;20172;-75
2022/07/29 08:25:20;;;;;;;5.25;3.17;;;36.60;1.00;;;;;;5073070;28;20176;-73
2022/07/29 08:27:46;;;;;;;3.72;2.75;;;37.00;1.00;;;;;;5073505;28;20254;-75
2022/07/29 08:30:12;;;;;;;3.40;2.65;;;37.10;1.00;;;;;;5072790;28;20176;-74
2022/07/29 08:32:38;;;;;;;3.17;2.20;;;37.80;1.00;;;;;;5073208;28;20176;-74
2022/07/29 08:35:04;;;;;;;3.47;2.38;;;38.50;1.00;;;;;;5072199;28;20275;-72
2022/07/29 08:37:29;;;;;;;3.95;2.28;;;38.70;1.00;;;;;;5073402;28;20564;-72
2022/07/29 08:39:55;;;;;;;2.65;2.00;;;38.70;1.00;;;;;;5072894;28;20205;-74
2022/07/29 08:42:21;;;;;;;4.97;2.60;;;38.00;1.00;;;;;;5072616;28;20243;-75
2022/07/29 08:44:47;;;;;;;3.38;2.00;;;38.60;1.00;;;;;;5072506;28;20164;-73
2022/07/29 08:47:16;;;;;;;2.85;2.08;;;38.90;1.00;;;;;;5071917;28;20180;-74
2022/07/29 08:49:41;;;;;;;2.58;2.38;;;39.10;1.00;;;;;;5073032;28;20529;-74
2022/07/29 08:52:10;;;;;;;4.15;2.58;;;39.20;1.00;;;;;;5072214;28;20168;-74
2022/07/29 08:54:36;;;;;;;5.43;2.42;;;39.70;1.00;;;;;;5072691;28;20273;-73
2022/07/29 08:57:02;;;;;;;5.50;2.30;;;39.70;1.00;;;;;;5071533;28;20183;-73
2022/07/29 08:59:33;;;;;;;3.42;1.92;;;39.30;1.00;;;;;;5071292;28;20187;-73
2022/07/29 09:02:00;;;;;;;4.63;2.20;;;39.10;1.00;;;;;;5072607;28;20171;-72
2022/07/29 09:04:34;;;;;;;1.70;1.60;;;38.90;1.00;;;;;;5071063;28;20185;-74
2022/07/29 09:07:02;;;;;;;3.20;2.10;;;38.50;1.00;;;;;;5072052;28;20168;-73
2022/07/29 09:09:28;;;;;;;3.60;2.05;;;38.70;1.00;;;;;;5095148;28;20219;-73
2022/07/29 09:11:54;;;;;;;4.13;2.10;;;39.10;1.00;;;;;;5103370;28;20169;-72
2022/07/29 09:14:19;;;;;;;7.32;2.15;;;38.30;1.00;;;;;;5112522;28;20645;-72
2022/07/29 09:16:54;;;;;;;3.08;1.70;;;38.60;1.00;;;;;;5113019;28;20536;-72
2022/07/29 09:19:34;;;;;;;5.32;2.53;;;38.90;1.00;;;;;;5112128;28;20245;-72
2022/07/29 09:22:02;;;;;;;2.83;2.25;;;38.70;1.00;;;;;;5096216;28;20166;-74
2022/07/29 09:24:47;;;;;;;2.95;2.42;;;38.60;1.00;;;;;;5113178;28;20159;-74
2022/07/29 09:27:25;;;;;;;4.80;1.83;;;38.00;1.00;;;;;;5113271;28;20950;-72
2022/07/29 09:30:18;;;;;;;2.65;2.08;;;36.30;1.00;;;;;;5112762;28;20159;-74
2022/07/29 09:33:01;;;;;;;3.28;2.35;;;36.70;1.00;;;;;;5112471;28;20178;-73
2022/07/29 09:35:28;;;;;;;3.15;2.05;;;37.10;1.00;;;;;;5111440;28;20213;-73
2022/07/29 09:37:54;;;;;;;1.80;1.70;;;37.10;1.00;;;;;;5112732;28;20262;-72
2022/07/29 09:40:30;;;;;;;2.10;1.88;;;37.50;1.00;;;;;;5112935;28;20498;-73
2022/07/29 09:42:57;;;;;;;5.72;2.20;;;38.30;1.00;;;;;;5112022;28;20166;-73
2022/07/29 09:45:35;;;;;;;7.38;2.50;;;37.70;1.00;;;;;;5112646;28;20192;-73
2022/07/29 09:48:20;;;;;;;3.08;1.90;;;37.40;1.00;;;;;;5091187;28;20302;-74
2022/07/29 09:50:49;;;;;;;6.78;2.60;;;38.00;1.00;;;;;;5111421;28;20182;-73
2022/07/29 09:53:37;;;;;;;4.57;2.20;;;38.30;1.00;;;;;;5112825;28;20652;-74
2022/07/29 09:56:05;;;;;;;3.83;2.05;;;38.30;1.00;;;;;;5112460;28;20745;-73
2022/07/29 09:58:33;;;;;;;2.50;2.30;;;38.00;1.00;;;;;;5111978;28;20169;-73
2022/07/29 10:00:59;;;;;;;3.15;2.30;;;37.00;1.00;;;;;;5112456;28;20285;-73
2022/07/29 10:03:25;;;;;;;2.58;2.00;;;36.40;1.00;;;;;;5111970;28;20175;-74
2022/07/29 10:06:07;;;;;;;5.22;2.13;;;36.00;1.00;;;;;;5111882;28;20525;-73
2022/07/29 10:08:33;;;;;;;4.28;1.88;;;35.90;1.00;;;;;;5112492;28;20206;-74
2022/07/29 10:11:17;;;;;;;6.15;1.88;;;34.60;1.00;;;;;;5093603;28;20694;-74
2022/07/29 10:13:46;;;;;;;2.72;1.80;;;34.40;1.00;;;;;;5112669;28;20630;-75
2022/07/29 10:16:12;;;;;;;4.60;2.65;;;33.80;1.00;;;;;;5095604;28;20270;-75
2022/07/29 10:18:39;;;;;;;4.57;2.00;;;34.30;1.00;;;;;;5112770;28;20224;-75
2022/07/29 10:21:05;;;;;;;4.82;2.00;;;34.60;1.00;;;;;;5111787;28;20171;-75
2022/07/29 10:23:31;;;;;;;6.13;2.40;;;34.80;1.00;;;;;;5111384;28;20183;-74
2022/07/29 10:25:57;;;;;;;6.82;3.10;;;34.80;1.00;;;;;;5111223;28;20167;-75
2022/07/29 10:28:23;;;;;;;2.22;1.90;;;35.20;1.00;;;;;;5112459;28;20522;-75
2022/07/29 10:30:58;;;;;;;14.40;3.08;;;35.00;1.00;;;;;;5112067;28;20179;-75
2022/07/29 10:33:26;;;;;;;2.85;1.85;;;35.70;1.00;;;;;;5112498;28;20257;-76
2022/07/29 10:36:04;;;;;;;5.65;2.45;;;35.80;1.00;;;;;;5112185;28;20202;-75
2022/07/29 10:38:47;;;;;;;3.92;2.03;;;36.00;1.00;;;;;;5111939;28;20163;-74
2022/07/29 10:42:03;;;;;;;4.85;2.20;;;35.00;1.00;;;;;;5093061;28;20257;-75
2022/07/29 10:44:30;;;;;;;3.10;1.85;;;35.30;1.00;;;;;;5064090;28;20183;-76
2022/07/29 10:46:56;;;;;;;3.00;2.67;;;34.60;1.00;;;;;;5112173;28;20258;-76
2022/07/29 10:49:26;;;;;;;2.05;1.83;;;33.90;1.00;;;;;;5097347;28;20178;-78
2022/07/29 10:52:05;;;;;;;2.78;1.90;;;32.90;1.00;;;;;;5115157;28;20178;-78
2022/07/29 10:54:41;;;;;;;6.00;2.13;;;32.20;1.00;;;;;;5114664;28;20347;-78
2022/07/29 10:57:13;;;;;;;2.63;2.17;;;32.20;1.00;;;;;;5096872;28;20261;-77
2022/07/29 10:59:40;;;;;;;2.20;2.10;;;31.90;1.00;;;;;;5097175;28;20283;-76
2022/07/29 11:02:36;;;;;;;3.90;2.10;;;31.70;1.00;;;;;;5115337;28;20202;-75
2022/07/29 11:05:08;;;;;;;2.83;2.60;;;32.90;1.00;;;;;;5115351;28;20634;-76
2022/07/29 11:07:35;;;;;;;4.20;2.67;;;33.70;1.00;;;;;;5114648;28;20649;-78
2022/07/29 11:10:12;;;;;;;5.35;2.78;;;33.90;1.00;;;;;;5114522;28;20313;-76
2022/07/29 11:12:38;;;;;;;2.80;2.47;;;34.70;1.00;;;;;;5115605;28;20197;-75
2022/07/29 11:15:06;;;;;;;5.25;3.20;;;35.30;1.00;;;;;;5115237;28;20562;-76
2022/07/29 11:17:53;;;;;;;3.10;2.78;;;35.80;1.00;;;;;;5115363;28;20251;-78
2022/07/29 11:20:38;;;;;;;6.88;2.80;;;36.20;1.00;;;;;;5099689;28;20208;-78
2022/07/29 11:23:27;;;;;;;6.90;2.40;;;35.60;1.00;;;;;;5114697;28;20175;-75
2022/07/29 11:26:20;;;;;;;3.28;2.63;;;35.70;1.00;;;;;;5114675;28;20249;-76
2022/07/29 11:29:16;;;;;;;4.20;3.15;;;35.70;1.00;;;;;;5101339;28;20183;-78
2022/07/29 11:31:44;;;;;;;3.33;2.88;;;35.00;1.00;;;;;;5115227;28;20178;-76
2022/07/29 11:34:21;;;;;;;4.20;3.63;;;34.00;1.00;;;;;;5096551;28;20649;-79
2022/07/29 11:37:20;;;;;;;4.57;3.38;;;31.70;1.00;;;;;;5114690;28;20274;-73
2022/07/29 11:39:56;;;;;;;4.13;3.08;;;31.90;1.00;;;;;;5031422;28;20208;-78
2022/07/29 11:42:24;;;;;;;7.00;3.22;;;32.50;1.00;;;;;;5032291;28;20220;-78
2022/07/29 11:45:05;;;;;;;6.47;3.17;;;32.50;1.00;;;;;;5031508;28;20228;-77
2022/07/29 11:47:33;;;;;;;4.40;2.80;;;32.50;1.00;;;;;;5031729;28;20257;-75
2022/07/29 11:50:01;;;;;;;6.47;3.08;;;32.50;1.00;;;;;;5032140;28;20218;-75
2022/07/29 11:52:42;;;;;;;4.85;3.72;;;33.30;1.00;;;;;;5032322;28;20174;-80
2022/07/29 11:55:09;;;;;;;5.72;3.83;;;33.50;1.00;;;;;;5014497;28;20224;-78
2022/07/29 11:57:36;;;;;;;5.82;3.15;;;33.40;1.00;;;;;;5031691;28;20189;-78
2022/07/29 12:00:05;;;;;;;5.93;2.50;;;33.50;1.00;;;;;;5042360;28;20180;-79
2022/07/29 12:02:43;;;;;;;4.28;2.88;;;33.30;1.00;;;;;;5031558;28;20649;-78
2022/07/29 12:05:13;;;;;;;7.95;2.70;;;33.70;1.00;;;;;;5031504;28;20186;-79
2022/07/29 12:07:39;;;;;;;5.50;2.70;;;33.90;1.00;;;;;;5031443;28;20667;-78
2022/07/29 12:10:06;;;;;;;4.05;2.65;;;33.90;1.00;;;;;;5030954;28;20233;-79
2022/07/29 12:12:34;;;;;;;5.60;2.90;;;34.20;1.00;;;;;;5031442;28;20170;-79
2022/07/29 12:15:20;;;;;;;3.63;2.35;;;34.20;1.00;;;;;;5060533;28;20217;-80
2022/07/29 12:17:47;;;;;;;7.88;3.05;;;34.20;1.00;;;;;;5113537;28;20188;-78
2022/07/29 12:20:21;;;;;;;4.65;2.70;;;33.80;1.00;;;;;;5113862;28;20174;-79
2022/07/29 12:22:49;;;;;;;6.75;3.10;;;33.00;1.00;;;;;;5113797;28;20201;-79
2022/07/29 12:25:15;;;;;;;5.60;2.95;;;32.60;1.00;;;;;;5113727;28;20167;-79
2022/07/29 12:27:42;;;;;;;4.38;2.80;;;32.50;1.00;;;;;;5114070;28;20187;-80
2022/07/29 12:30:11;;;;;;;5.03;2.78;;;32.50;1.00;;;;;;5113810;28;20182;-81
2022/07/29 12:32:40;;;;;;;4.78;2.88;;;32.30;1.00;;;;;;5112322;28;20190;-79
2022/07/29 12:35:14;;;;;;;7.32;2.90;;;32.20;1.00;;;;;;5113622;28;20259;-78
2022/07/29 12:37:42;;;;;;;7.13;5.03;;;32.10;1.00;;;;;;5112972;28;20170;-80
2022/07/29 12:40:09;;;;;;;4.97;2.90;;;31.80;1.00;;;;;;5113922;28;20163;-78
2022/07/29 12:42:35;;;;;;;5.28;2.90;;;31.70;1.00;;;;;;5113701;28;20174;-77
2022/07/29 12:45:01;;;;;;;5.97;3.10;;;31.60;1.00;;;;;;5113200;28;20179;-77
2022/07/29 12:47:27;;;;;;;4.75;3.67;;;31.30;1.00;;;;;;5113838;28;20174;-80
2022/07/29 12:50:09;;;;;;;4.53;2.90;;;31.10;1.00;;;;;;5113387;28;20296;-79
2022/07/29 12:52:35;;;;;;;6.20;3.20;;;30.90;1.00;;;;;;5112865;28;20269;-79
2022/07/29 12:55:02;;;;;;;5.05;2.50;;;30.90;1.00;;;;;;5113047;28;20384;-79
2022/07/29 12:57:28;;;;;;;4.72;2.88;;;30.40;1.00;;;;;;5113190;28;20182;-77
2022/07/29 13:00:09;;;;;;;5.38;2.90;;;30.40;1.00;;;;;;5112959;28;20641;-78
2022/07/29 13:02:38;;;;;;;6.07;2.65;;;30.40;1.00;;;;;;5093165;28;20170;-77
2022/07/29 13:05:08;;;;;;;7.53;2.85;;;30.60;1.00;;;;;;5113170;28;20196;-77
2022/07/29 13:07:36;;;;;;;5.00;2.47;;;30.80;1.00;;;;;;5094423;28;20167;-76
2022/07/29 13:10:16;;;;;;;4.05;2.30;;;30.70;1.00;;;;;;5112708;28;20219;-77